Time;durP1;ratioP1;P1;durP2;ratioP2;P2;SDS_P1;SDS_P2;PMS_P1;PMS_P2;Temp;Humidity;BMP_temperature;BMP_pressure;BME280_temperature;BME280_humidity;BME280_pressure;Samples;Min_cycle;Max_cycle;Signal;HPM_P1;HPM_P2
2021/10/01 00:02:51;;;;;;;17.90;11.65;;;;;;;5.16;100.00;100011.89;2314736;77;20949;-83
2021/10/01 00:05:52;;;;;;;16.65;12.25;;;;;;;5.08;100.00;100009.38;2314807;77;21075;-84
2021/10/01 00:08:53;;;;;;;20.65;13.18;;;;;;;5.01;100.00;100011.23;2314751;77;20988;-83
2021/10/01 00:11:54;;;;;;;19.60;12.13;;;;;;;4.97;100.00;100004.16;2314859;77;21009;-83
2021/10/01 00:14:56;;;;;;;20.75;12.33;;;;;;;4.96;100.00;100010.30;2314742;77;21043;-82
2021/10/01 00:17:57;;;;;;;16.42;10.55;;;;;;;4.95;100.00;100012.53;2314812;77;20984;-83
2021/10/01 00:20:58;;;;;;;17.77;10.85;;;;;;;4.92;100.00;100015.34;2314834;77;21039;-83
2021/10/01 00:23:59;;;;;;;15.72;10.88;;;;;;;4.89;100.00;100015.57;2314643;77;20976;-82
2021/10/01 00:27:00;;;;;;;14.40;11.15;;;;;;;4.91;100.00;100020.17;2314642;77;20977;-83
2021/10/01 00:30:01;;;;;;;18.62;11.65;;;;;;;4.91;100.00;100007.19;2314725;76;21575;-83
2021/10/01 00:33:01;;;;;;;13.38;10.65;;;;;;;4.80;100.00;100002.79;2314716;77;21021;-82
2021/10/01 00:36:03;;;;;;;16.67;12.18;;;;;;;4.70;100.00;100008.29;2314819;77;20996;-83
2021/10/01 00:39:04;;;;;;;14.45;10.58;;;;;;;4.66;100.00;100014.62;2314677;77;22075;-83
2021/10/01 00:42:05;;;;;;;15.65;11.48;;;;;;;4.67;100.00;100011.59;2314822;77;21075;-81
2021/10/01 00:45:05;;;;;;;14.55;10.82;;;;;;;4.65;100.00;100006.95;2314945;77;20980;-83
2021/10/01 00:48:06;;;;;;;15.43;10.98;;;;;;;4.64;100.00;100006.59;2314826;77;21483;-82
2021/10/01 00:51:07;;;;;;;19.60;12.03;;;;;;;4.62;100.00;100000.23;2314842;77;21052;-82
2021/10/01 00:54:08;;;;;;;15.93;11.10;;;;;;;4.61;100.00;99994.68;2314680;77;20999;-82
2021/10/01 00:57:09;;;;;;;17.67;11.10;;;;;;;4.58;100.00;99994.91;2314261;77;21004;-82
2021/10/01 01:00:21;;;;;;;14.15;9.40;;;;;;;4.54;100.00;99996.88;2314640;77;20957;-82
2021/10/01 01:03:12;;;;;;;14.23;10.90;;;;;;;4.50;100.00;99995.45;2312380;77;21012;-82
2021/10/01 01:06:13;;;;;;;16.10;10.95;;;;;;;4.49;100.00;99997.69;2314612;77;20972;-82
2021/10/01 01:09:14;;;;;;;15.55;10.93;;;;;;;4.45;100.00;99991.05;2314817;77;21546;-82
2021/10/01 01:12:15;;;;;;;18.82;11.55;;;;;;;4.43;100.00;99985.63;2314794;77;20988;-83
2021/10/01 01:15:16;;;;;;;16.85;11.40;;;;;;;4.41;100.00;99983.14;2314742;77;21131;-83
2021/10/01 01:18:17;;;;;;;17.92;12.35;;;;;;;4.41;100.00;99987.03;2314769;77;21003;-82
2021/10/01 01:21:17;;;;;;;18.55;11.88;;;;;;;4.43;100.00;99994.23;2314805;77;20949;-82
2021/10/01 01:24:18;;;;;;;19.00;11.43;;;;;;;4.40;100.00;99989.27;2314644;77;21020;-82
2021/10/01 01:27:19;;;;;;;21.00;12.28;;;;;;;4.38;100.00;99988.53;2314619;77;21005;-82
2021/10/01 01:30:20;;;;;;;16.57;12.45;;;;;;;4.38;100.00;99986.41;2314534;77;21079;-83
2021/10/01 01:33:21;;;;;;;16.50;12.35;;;;;;;4.36;100.00;99990.88;2314667;77;20988;-83
2021/10/01 01:36:21;;;;;;;19.90;13.62;;;;;;;4.29;100.00;99988.71;2314505;77;21061;-84
2021/10/01 01:39:22;;;;;;;19.62;12.70;;;;;;;4.33;100.00;99988.52;2314695;77;21079;-84
2021/10/01 01:42:23;;;;;;;15.13;11.28;;;;;;;4.28;100.00;99986.23;2314791;77;20983;-83
2021/10/01 01:45:24;;;;;;;16.97;12.85;;;;;;;4.25;100.00;99986.45;2314624;77;21480;-84
2021/10/01 01:48:25;;;;;;;18.90;12.65;;;;;;;4.21;100.00;99987.63;2314857;77;21019;-84
2021/10/01 01:51:25;;;;;;;18.25;12.18;;;;;;;4.20;100.00;99982.05;2314754;77;21017;-84
2021/10/01 01:54:26;;;;;;;18.57;12.15;;;;;;;4.20;100.00;99992.42;2314748;77;20960;-84
2021/10/01 01:57:27;;;;;;;19.35;12.58;;;;;;;4.19;100.00;100003.27;2314818;77;20914;-84
2021/10/01 02:00:28;;;;;;;18.05;11.83;;;;;;;4.19;100.00;100004.56;2314682;77;21515;-84
2021/10/01 02:03:29;;;;;;;15.80;11.88;;;;;;;4.16;100.00;99994.41;2314785;77;21531;-83
2021/10/01 02:06:29;;;;;;;15.30;11.25;;;;;;;4.14;100.00;99994.17;2314656;77;20934;-84
2021/10/01 02:09:31;;;;;;;18.85;11.70;;;;;;;4.04;100.00;99997.05;2314829;77;21061;-83
2021/10/01 02:12:32;;;;;;;19.17;11.83;;;;;;;3.98;100.00;100004.30;2314698;77;20961;-84
2021/10/01 02:15:33;;;;;;;19.60;11.93;;;;;;;3.96;100.00;100003.58;2314768;77;21056;-83
2021/10/01 02:18:33;;;;;;;18.90;11.88;;;;;;;3.93;100.00;100009.42;2314640;77;20945;-83
2021/10/01 02:21:34;;;;;;;19.77;12.55;;;;;;;3.90;100.00;100014.36;2314807;77;20988;-84
2021/10/01 02:24:35;;;;;;;19.10;12.23;;;;;;;3.87;100.00;100013.75;2314548;77;21460;-83
2021/10/01 02:27:36;;;;;;;18.48;12.23;;;;;;;3.86;100.00;100014.70;2314536;77;21084;-84
2021/10/01 02:30:37;;;;;;;21.30;12.13;;;;;;;3.87;100.00;100018.94;2302849;77;21029;-84
2021/10/01 02:33:38;;;;;;;17.98;12.10;;;;;;;3.82;100.00;100013.23;2301256;77;20979;-84
2021/10/01 02:36:38;;;;;;;17.37;12.45;;;;;;;3.80;100.00;100013.34;2301221;77;20998;-84
2021/10/01 02:39:39;;;;;;;17.10;11.90;;;;;;;3.74;100.00;100012.92;2301322;77;20962;-83
2021/10/01 02:42:40;;;;;;;20.37;13.95;;;;;;;3.68;100.00;100016.31;2301286;77;21050;-84
2021/10/01 02:45:41;;;;;;;18.95;13.43;;;;;;;3.68;100.00;100020.19;2300854;77;21018;-84
2021/10/01 02:48:42;;;;;;;21.40;13.72;;;;;;;3.68;100.00;100019.36;2300878;77;21003;-84
2021/10/01 02:51:42;;;;;;;18.20;12.90;;;;;;;3.65;100.00;100013.90;2300837;77;21057;-84
2021/10/01 02:54:43;;;;;;;20.25;12.63;;;;;;;3.64;100.00;100021.31;2300804;77;20959;-83
2021/10/01 02:57:44;;;;;;;16.55;12.73;;;;;;;3.63;100.00;100013.19;2301032;77;21058;-83
2021/10/01 03:00:45;;;;;;;17.27;11.45;;;;;;;3.65;100.00;100019.55;2301109;77;21010;-83
2021/10/01 03:03:46;;;;;;;20.92;12.75;;;;;;;3.60;100.00;100013.87;2301552;77;20974;-83
2021/10/01 03:06:47;;;;;;;21.07;12.88;;;;;;;3.53;100.00;100005.67;2301501;77;21026;-83
2021/10/01 03:09:47;;;;;;;24.55;13.80;;;;;;;3.53;100.00;100006.97;2301182;77;21446;-83
2021/10/01 03:12:48;;;;;;;18.65;13.20;;;;;;;3.51;100.00;100005.42;2301301;77;21013;-84
2021/10/01 03:15:49;;;;;;;16.32;12.35;;;;;;;3.50;100.00;100011.54;2301575;77;20978;-83
2021/10/01 03:18:50;;;;;;;20.37;12.20;;;;;;;3.46;100.00;99997.95;2301564;77;20993;-83
2021/10/01 03:21:51;;;;;;;21.17;12.45;;;;;;;3.44;100.00;99995.94;2301566;77;20958;-83
2021/10/01 03:24:51;;;;;;;21.62;12.95;;;;;;;3.39;100.00;100001.44;2301540;77;20951;-84
2021/10/01 03:27:52;;;;;;;18.00;12.00;;;;;;;3.36;100.00;99995.15;2301525;77;21100;-83
2021/10/01 03:30:53;;;;;;;15.32;10.70;;;;;;;3.28;100.00;100006.48;2312941;76;21527;-84
2021/10/01 03:33:54;;;;;;;22.70;14.03;;;;;;;3.08;100.00;99992.27;2314577;77;21035;-83
2021/10/01 03:36:55;;;;;;;25.65;12.35;;;;;;;2.84;100.00;99984.83;2314565;77;20989;-83
2021/10/01 03:39:56;;;;;;;21.97;14.65;;;;;;;2.69;100.00;99983.22;2314504;77;21586;-83
2021/10/01 03:42:57;;;;;;;25.30;14.73;;;;;;;2.58;100.00;99970.98;2314799;77;21020;-84
2021/10/01 03:45:58;;;;;;;27.75;15.98;;;;;;;2.51;100.00;99969.25;2314955;77;21024;-83
2021/10/01 03:48:58;;;;;;;23.15;14.75;;;;;;;2.48;100.00;99970.75;2315115;77;21006;-83
2021/10/01 03:51:59;;;;;;;25.32;15.18;;;;;;;2.49;100.00;99972.41;2315003;77;20945;-82
2021/10/01 03:55:03;;;;;;;17.07;12.15;;;;;;;2.53;100.00;99972.56;2315130;77;21020;-83
2021/10/01 03:58:03;;;;;;;20.80;14.07;;;;;;;2.46;100.00;99971.28;2314995;76;21030;-83
2021/10/01 04:01:04;;;;;;;21.87;14.07;;;;;;;2.43;100.00;99966.32;2314897;77;20948;-82
2021/10/01 04:04:05;;;;;;;22.15;13.98;;;;;;;2.43;100.00;99965.03;2314908;77;21095;-83
2021/10/01 04:07:06;;;;;;;21.82;15.08;;;;;;;2.43;100.00;99968.08;2314975;77;20996;-82
2021/10/01 04:10:07;;;;;;;19.92;13.58;;;;;;;2.39;100.00;99967.92;2315083;77;20992;-83
2021/10/01 04:13:07;;;;;;;20.82;13.45;;;;;;;2.36;100.00;99974.55;2314952;77;21547;-83
2021/10/01 04:16:08;;;;;;;25.92;14.25;;;;;;;2.37;100.00;99977.50;2314849;77;21056;-83
2021/10/01 04:19:09;;;;;;;24.10;15.08;;;;;;;2.32;100.00;99973.93;2314871;77;20957;-84
2021/10/01 04:22:10;;;;;;;23.35;15.20;;;;;;;2.35;100.00;99975.02;2315440;77;21463;-81
2021/10/01 04:25:11;;;;;;;35.48;18.20;;;;;;;2.33;100.00;99979.92;2314724;77;20972;-79
2021/10/01 04:28:12;;;;;;;33.92;19.25;;;;;;;2.25;100.00;99983.81;2314918;77;21013;-80
2021/10/01 04:31:13;;;;;;;54.60;23.18;;;;;;;2.26;100.00;99981.59;2314689;77;21063;-79
2021/10/01 04:34:13;;;;;;;51.58;25.62;;;;;;;2.32;100.00;99990.73;2314942;77;21488;-79
2021/10/01 04:37:14;;;;;;;61.58;28.32;;;;;;;2.28;100.00;99988.78;2314819;77;21487;-79
2021/10/01 04:40:15;;;;;;;51.90;26.12;;;;;;;2.27;100.00;99991.00;2314803;77;20988;-79
2021/10/01 04:43:16;;;;;;;36.23;21.02;;;;;;;2.25;100.00;99992.86;2314901;77;21647;-79
2021/10/01 04:46:17;;;;;;;27.40;15.23;;;;;;;2.27;100.00;99994.88;2314584;77;21091;-79
2021/10/01 04:49:18;;;;;;;21.65;14.25;;;;;;;2.34;100.00;99997.92;2314426;77;20972;-80
2021/10/01 04:52:19;;;;;;;17.77;13.20;;;;;;;2.40;100.00;99993.66;2314552;77;21008;-79
2021/10/01 04:55:20;;;;;;;15.80;12.10;;;;;;;2.47;100.00;99998.83;2314599;77;21052;-79
2021/10/01 04:58:21;;;;;;;13.22;11.20;;;;;;;2.56;100.00;99991.78;2314551;77;20993;-79
2021/10/01 05:01:21;;;;;;;18.67;13.35;;;;;;;2.65;100.00;99991.66;2314547;77;21021;-79
2021/10/01 05:04:22;;;;;;;23.70;16.15;;;;;;;2.79;100.00;99997.22;2314634;77;20983;-79
2021/10/01 05:07:23;;;;;;;19.45;14.20;;;;;;;2.92;100.00;99993.36;2314694;77;21036;-79
2021/10/01 05:10:24;;;;;;;19.23;13.62;;;;;;;3.02;100.00;99994.45;2315052;77;20961;-79
2021/10/01 05:13:25;;;;;;;25.05;16.12;;;;;;;3.13;100.00;99988.92;2314834;77;20964;-79
2021/10/01 05:16:26;;;;;;;27.13;17.32;;;;;;;3.22;100.00;99991.38;2314736;77;20981;-80
2021/10/01 05:19:27;;;;;;;26.70;17.95;;;;;;;3.37;100.00;99994.22;2314917;77;21523;-81
2021/10/01 05:22:28;;;;;;;26.97;17.75;;;;;;;3.50;100.00;99993.41;2314868;77;22124;-79
2021/10/01 05:25:29;;;;;;;25.65;16.02;;;;;;;3.67;100.00;100000.41;2314736;77;21043;-79
2021/10/01 05:28:30;;;;;;;20.85;14.28;;;;;;;3.86;100.00;99997.85;2314823;77;20993;-79
2021/10/01 05:31:31;;;;;;;20.02;13.50;;;;;;;4.02;100.00;99989.82;2312294;77;21429;-79
2021/10/01 05:34:32;;;;;;;22.30;16.00;;;;;;;4.16;100.00;99987.11;2314771;77;20921;-79
2021/10/01 05:37:33;;;;;;;29.48;19.02;;;;;;;4.20;100.00;99991.13;2314707;77;21015;-81
2021/10/01 05:40:33;;;;;;;46.02;29.12;;;;;;;4.25;100.00;99992.94;2314795;77;21025;-81
2021/10/01 05:43:34;;;;;;;47.78;31.37;;;;;;;4.21;100.00;99995.41;2314744;77;21060;-80
2021/10/01 05:46:40;;;;;;;44.03;28.38;;;;;;;4.20;100.00;99994.55;2314739;77;20981;-81
2021/10/01 05:49:40;;;;;;;46.63;31.07;;;;;;;4.24;100.00;99996.00;2314480;77;21041;-82
2021/10/01 05:55:44;;;;;;;32.30;24.47;;;;;;;4.34;100.00;99997.95;2314741;77;20968;-79
2021/10/01 05:58:45;;;;;;;28.47;21.73;;;;;;;4.45;100.00;100005.31;2314731;77;21501;-80
2021/10/01 06:01:46;;;;;;;26.07;19.40;;;;;;;4.52;100.00;100001.83;2314711;77;21032;-78
2021/10/01 06:04:47;;;;;;;32.38;25.88;;;;;;;4.54;100.00;100007.73;2314798;77;21103;-78
2021/10/01 06:07:48;;;;;;;35.15;26.77;;;;;;;4.61;100.00;100010.72;2314692;77;20941;-82
2021/10/01 06:10:49;;;;;;;35.17;26.10;;;;;;;4.71;100.00;100015.60;2314883;77;21475;-79
2021/10/01 06:13:50;;;;;;;27.20;18.40;;;;;;;4.81;100.00;100009.63;2314343;77;21460;-82
2021/10/01 06:16:51;;;;;;;23.42;19.02;;;;;;;4.99;100.00;100008.76;2314282;77;21054;-81
2021/10/01 06:19:51;;;;;;;26.20;18.10;;;;;;;5.16;100.00;100006.23;2314792;77;21485;-81
2021/10/01 06:22:52;;;;;;;23.75;17.62;;;;;;;5.31;100.00;100010.77;2314805;77;21071;-81
2021/10/01 06:25:53;;;;;;;23.52;15.48;;;;;;;5.47;100.00;100012.55;2314670;77;21033;-81
2021/10/01 06:28:54;;;;;;;28.07;20.45;;;;;;;5.63;100.00;100020.02;2314877;77;21492;-80
2021/10/01 06:31:56;;;;;;;28.02;20.60;;;;;;;5.80;100.00;100024.77;2302423;77;21553;-82
2021/10/01 06:34:57;;;;;;;39.03;25.48;;;;;;;5.97;100.00;100019.13;2301372;77;21557;-81
2021/10/01 06:37:58;;;;;;;20.70;14.20;;;;;;;6.14;100.00;100025.64;2301450;77;20986;-79
2021/10/01 06:40:59;;;;;;;24.60;18.82;;;;;;;6.28;100.00;100021.47;2301364;77;21018;-79
2021/10/01 06:44:03;;;;;;;22.45;16.97;;;;;;;6.41;100.00;100023.13;2301242;77;21042;-79
2021/10/01 06:47:07;;;;;;;21.90;14.43;;;;;;;6.55;100.00;100021.54;2301250;77;21090;-80
2021/10/01 06:50:20;;;;;;;30.27;21.07;;;;;;;6.67;100.00;100013.22;2301540;77;20958;-83
2021/10/01 07:36:48;;;;;;;19.45;16.10;;;;;;;8.34;100.00;100027.48;2283632;78;21053;-82
2021/10/01 08:19:18;;;;;;;23.38;15.98;;;;;;;9.95;100.00;100023.29;2283092;78;21100;-78
2021/10/01 08:22:15;;;;;;;22.07;15.83;;;;;;;10.00;100.00;100031.21;2281847;77;21067;-77
2021/10/01 08:25:16;;;;;;;22.45;15.50;;;;;;;10.04;100.00;100029.45;2283295;77;21028;-78
2021/10/01 08:28:18;;;;;;;15.88;11.90;;;;;;;10.10;100.00;100033.30;2283256;78;21539;-76
2021/10/01 08:31:21;;;;;;;16.30;12.03;;;;;;;10.21;100.00;100029.18;2283353;77;21062;-78
2021/10/01 08:34:23;;;;;;;19.90;13.72;;;;;;;10.27;100.00;100031.26;2283559;77;20999;-75
2021/10/01 08:37:24;;;;;;;20.43;15.15;;;;;;;10.32;100.00;100032.94;2283420;78;21073;-75
2021/10/01 08:40:25;;;;;;;26.40;17.73;;;;;;;10.40;100.00;100025.18;2283372;78;21039;-77
2021/10/01 08:43:27;;;;;;;23.65;16.57;;;;;;;10.47;100.00;100024.94;2282889;77;21115;-76
2021/10/01 08:46:29;;;;;;;21.85;14.65;;;;;;;10.56;100.00;100025.85;2283023;78;20995;-77
2021/10/01 08:49:31;;;;;;;23.75;16.75;;;;;;;10.67;100.00;100028.74;2283152;78;21082;-76
2021/10/01 08:52:32;;;;;;;23.40;15.98;;;;;;;10.76;100.00;100020.81;2283238;78;21049;-77
2021/10/01 08:55:33;;;;;;;18.50;13.72;;;;;;;10.94;100.00;100018.69;2283535;77;21003;-77
2021/10/01 08:58:34;;;;;;;24.87;18.90;;;;;;;11.11;100.00;100013.44;2283572;78;21048;-76
2021/10/01 09:01:36;;;;;;;28.17;19.50;;;;;;;11.28;100.00;100014.89;2283274;77;21048;-76
2021/10/01 09:04:37;;;;;;;25.80;19.07;;;;;;;11.37;100.00;100012.17;2283368;78;21579;-79
2021/10/01 09:07:38;;;;;;;28.38;19.87;;;;;;;11.46;100.00;100014.86;2283236;78;21061;-77
2021/10/01 09:10:39;;;;;;;25.70;18.17;;;;;;;11.56;100.00;100012.46;2283519;78;20992;-77
2021/10/01 09:13:41;;;;;;;24.30;17.12;;;;;;;11.61;100.00;100008.05;2283348;78;21555;-77
2021/10/01 09:16:42;;;;;;;23.55;16.77;;;;;;;11.70;100.00;100007.12;2283358;78;21064;-78
2021/10/01 09:19:43;;;;;;;19.62;15.23;;;;;;;11.79;100.00;100006.67;2283311;78;21004;-78
2021/10/01 09:22:46;;;;;;;27.15;18.37;;;;;;;11.94;100.00;99998.59;2283391;78;20984;-78
2021/10/01 09:25:47;;;;;;;30.72;20.70;;;;;;;12.06;100.00;100000.44;2283475;78;21060;-78
2021/10/01 09:28:49;;;;;;;29.25;20.65;;;;;;;12.15;100.00;99998.19;2283452;78;21511;-77
2021/10/01 09:31:50;;;;;;;33.42;20.88;;;;;;;12.02;100.00;99978.13;2301239;77;21031;-77
2021/10/01 09:34:52;;;;;;;27.52;19.90;;;;;;;12.03;100.00;99994.20;2314629;77;20997;-77
2021/10/01 09:37:53;;;;;;;27.52;19.90;;;;;;;12.08;100.00;99992.77;2314748;77;20973;-77
2021/10/01 09:40:55;;;;;;;25.43;17.75;;;;;;;12.17;100.00;99991.00;2314969;77;21028;-79
2021/10/01 09:43:56;;;;;;;27.67;17.92;;;;;;;12.29;100.00;99982.33;2314767;77;20969;-79
2021/10/01 09:46:57;;;;;;;25.02;18.48;;;;;;;12.49;100.00;99981.06;2314854;77;21534;-78
2021/10/01 09:49:58;;;;;;;26.68;18.48;;;;;;;12.72;100.00;99985.22;2314660;77;20901;-79
2021/10/01 09:52:59;;;;;;;27.25;19.55;;;;;;;12.90;100.00;99994.27;2314653;77;20945;-78
2021/10/01 09:56:01;;;;;;;25.10;18.00;;;;;;;13.04;100.00;99986.54;2314409;77;20997;-78
2021/10/01 09:59:02;;;;;;;30.02;20.35;;;;;;;13.16;100.00;99988.34;2314616;77;21028;-78
2021/10/01 10:02:04;;;;;;;27.58;19.82;;;;;;;13.14;100.00;99983.74;2314629;77;21009;-78
2021/10/01 10:05:05;;;;;;;29.77;20.60;;;;;;;13.21;100.00;99985.26;2314836;77;21022;-78
2021/10/01 10:08:06;;;;;;;26.80;20.17;;;;;;;13.24;100.00;99979.16;2314563;77;21075;-79
2021/10/01 10:11:07;;;;;;;31.60;22.15;;;;;;;13.26;100.00;99989.05;2314617;77;21471;-78
2021/10/01 10:14:09;;;;;;;28.52;21.48;;;;;;;13.17;100.00;99986.56;2314597;77;21527;-78
2021/10/01 10:17:10;;;;;;;29.27;20.37;;;;;;;13.28;100.00;99977.04;2314716;77;21016;-78
2021/10/01 10:20:11;;;;;;;28.27;21.00;;;;;;;13.34;100.00;99979.80;2314526;77;21520;-79
2021/10/01 10:23:12;;;;;;;29.85;21.65;;;;;;;13.38;100.00;99977.19;2314516;77;20984;-78
2021/10/01 10:26:14;;;;;;;28.27;20.57;;;;;;;13.46;100.00;99974.22;2314544;77;21011;-79
2021/10/01 10:29:16;;;;;;;31.25;20.45;;;;;;;13.39;100.00;99975.38;2314278;77;21091;-79
2021/10/01 10:32:17;;;;;;;26.40;21.00;;;;;;;13.40;100.00;99978.33;2305521;77;21537;-78
2021/10/01 10:35:19;;;;;;;28.27;22.25;;;;;;;13.53;100.00;99977.80;2301167;77;20989;-78
2021/10/01 10:38:21;;;;;;;22.15;16.95;;;;;;;13.64;100.00;99967.77;2301113;77;21489;-78
2021/10/01 10:41:22;;;;;;;19.42;14.43;;;;;;;13.58;100.00;99975.00;2301215;77;20962;-78
2021/10/01 10:44:23;;;;;;;23.70;17.80;;;;;;;13.62;100.00;99971.06;2301333;77;20954;-78
2021/10/01 10:47:24;;;;;;;26.77;21.37;;;;;;;13.72;100.00;99968.73;2301361;77;20962;-78
2021/10/01 10:50:25;;;;;;;27.50;19.65;;;;;;;13.73;100.00;99965.11;2301296;77;21470;-80
2021/10/01 10:53:27;;;;;;;27.35;18.32;;;;;;;13.82;100.00;99956.20;2301419;77;21469;-81
2021/10/01 10:56:28;;;;;;;36.85;21.20;;;;;;;13.89;100.00;99958.45;2301240;77;21030;-82
2021/10/01 10:59:29;;;;;;;24.55;19.23;;;;;;;13.93;100.00;99951.87;2301358;77;21005;-79
2021/10/01 11:02:43;;;;;;;27.15;20.77;;;;;;;13.88;100.00;99949.73;2301156;77;20994;-80
2021/10/01 11:05:45;;;;;;;24.52;18.70;;;;;;;13.83;100.00;99944.67;2301148;77;21084;-80
2021/10/01 11:08:47;;;;;;;24.70;19.15;;;;;;;13.71;100.00;99935.48;2301187;77;21033;-78
2021/10/01 11:11:48;;;;;;;21.73;18.00;;;;;;;13.71;100.00;99939.43;2301310;77;21519;-78
2021/10/01 11:14:49;;;;;;;30.52;19.07;;;;;;;13.84;100.00;99930.52;2301209;77;21510;-78
2021/10/01 11:17:51;;;;;;;30.27;20.05;;;;;;;14.02;100.00;99935.04;2301171;77;21601;-78
2021/10/01 11:20:52;;;;;;;27.73;20.68;;;;;;;14.16;100.00;99932.16;2301293;77;21518;-78
2021/10/01 11:23:53;;;;;;;26.68;19.05;;;;;;;14.00;100.00;99929.13;2301180;77;20993;-79
2021/10/01 11:26:54;;;;;;;23.57;17.85;;;;;;;13.95;100.00;99929.62;2301239;77;21506;-78
2021/10/01 11:29:55;;;;;;;23.92;19.77;;;;;;;13.95;100.00;99923.55;2301696;77;20987;-78
2021/10/01 11:32:56;;;;;;;25.20;21.42;;;;;;;14.04;100.00;99917.75;2287566;77;21059;-80
2021/10/01 11:35:57;;;;;;;23.95;17.37;;;;;;;13.94;100.00;99912.20;2283057;78;21036;-79
2021/10/01 11:38:58;;;;;;;26.02;20.05;;;;;;;13.91;100.00;99910.41;2283621;78;20987;-80
2021/10/01 11:41:59;;;;;;;21.62;17.85;;;;;;;13.89;100.00;99901.84;2283340;78;20973;-79
2021/10/01 11:45:00;;;;;;;22.62;16.70;;;;;;;13.98;100.00;99898.67;2283545;78;21534;-80
2021/10/01 11:48:02;;;;;;;22.10;18.42;;;;;;;14.00;100.00;99897.53;2283397;78;21080;-80
2021/10/01 11:51:04;;;;;;;20.02;17.80;;;;;;;14.02;100.00;99891.59;2283103;78;21533;-79
2021/10/01 11:54:05;;;;;;;21.07;18.07;;;;;;;13.99;98.94;99888.00;2283500;78;21563;-79
2021/10/01 11:57:06;;;;;;;19.73;16.52;;;;;;;13.93;100.00;99881.59;2283796;78;20949;-80
2021/10/01 12:00:10;;;;;;;17.37;15.55;;;;;;;13.96;100.00;99873.84;2283617;78;20988;-82
2021/10/01 12:03:11;;;;;;;16.12;14.23;;;;;;;14.01;100.00;99869.39;2283412;78;20984;-78
2021/10/01 12:06:12;;;;;;;17.25;14.70;;;;;;;14.13;100.00;99863.53;2283742;78;21112;-78
2021/10/01 12:09:13;;;;;;;28.07;18.98;;;;;;;14.22;100.00;99857.22;2283099;77;21417;-79
2021/10/01 12:12:14;;;;;;;17.52;15.65;;;;;;;14.32;99.21;99855.67;2283487;78;21536;-79
2021/10/01 12:15:15;;;;;;;16.12;13.15;;;;;;;14.32;98.75;99845.13;2283393;78;20948;-82
2021/10/01 12:18:16;;;;;;;14.90;13.10;;;;;;;14.39;98.67;99836.03;2283487;78;20988;-80
2021/10/01 12:21:17;;;;;;;15.78;12.33;;;;;;;14.51;98.86;99842.55;2283334;78;21019;-78
2021/10/01 12:24:18;;;;;;;15.65;11.53;;;;;;;14.58;98.02;99838.70;2283379;78;20953;-81
2021/10/01 12:27:19;;;;;;;16.35;13.80;;;;;;;14.68;96.22;99830.05;2283358;77;21015;-79
2021/10/01 12:30:19;;;;;;;14.33;12.07;;;;;;;14.87;97.61;99832.17;2283372;78;20980;-80
2021/10/01 12:33:21;;;;;;;14.53;12.15;;;;;;;15.05;96.47;99827.87;2298115;77;21068;-79
2021/10/01 12:36:21;;;;;;;14.15;11.57;;;;;;;15.12;96.35;99824.02;2301324;77;21143;-80
2021/10/01 12:39:22;;;;;;;11.70;10.50;;;;;;;15.04;93.74;99819.64;2301440;77;21453;-80
2021/10/01 12:42:23;;;;;;;11.10;9.33;;;;;;;14.94;93.16;99810.67;2301455;77;20999;-81
2021/10/01 12:45:27;;;;;;;10.03;8.63;;;;;;;14.83;93.62;99813.77;2301148;77;21097;-79
2021/10/01 12:48:28;;;;;;;11.20;8.75;;;;;;;14.76;93.76;99812.34;2301323;77;20986;-81
2021/10/01 12:51:29;;;;;;;9.28;8.28;;;;;;;14.74;93.05;99807.75;2301401;77;21506;-80
2021/10/01 12:54:29;;;;;;;9.25;8.25;;;;;;;14.69;92.83;99802.19;2301257;77;20994;-81
2021/10/01 12:57:30;;;;;;;9.20;7.40;;;;;;;14.69;91.89;99796.91;2301131;77;21033;-79
2021/10/01 13:00:31;;;;;;;9.83;8.95;;;;;;;14.70;91.81;99789.82;2301412;77;20978;-80
2021/10/01 13:03:32;;;;;;;8.23;7.37;;;;;;;14.70;91.50;99788.00;2301241;77;21033;-80
2021/10/01 13:06:33;;;;;;;8.68;7.83;;;;;;;14.69;92.66;99778.46;2301346;77;20955;-80
2021/10/01 13:09:34;;;;;;;9.25;8.18;;;;;;;14.70;91.61;99770.88;2301525;77;21061;-80
2021/10/01 13:12:35;;;;;;;9.10;7.28;;;;;;;14.74;92.16;99778.75;2301313;77;21523;-80
2021/10/01 13:15:36;;;;;;;6.83;6.22;;;;;;;14.72;90.66;99774.17;2301445;77;21505;-80
2021/10/01 13:18:39;;;;;;;7.10;5.85;;;;;;;14.73;91.47;99771.84;2301475;77;20973;-80
2021/10/01 13:21:40;;;;;;;6.47;5.85;;;;;;;14.77;91.30;99760.44;2301586;77;21035;-81
2021/10/01 13:24:41;;;;;;;8.43;6.03;;;;;;;14.79;90.96;99759.24;2301577;77;20966;-79
2021/10/01 13:27:41;;;;;;;6.28;5.58;;;;;;;14.79;89.60;99757.11;2301358;77;20991;-80
2021/10/01 13:30:42;;;;;;;8.03;7.25;;;;;;;14.78;90.65;99755.47;2301072;77;20984;-79
2021/10/01 13:33:43;;;;;;;9.95;7.10;;;;;;;14.78;91.31;99751.52;2254642;78;21000;-80
2021/10/01 13:36:46;;;;;;;9.85;8.05;;;;;;;14.77;91.56;99754.66;2279698;78;21564;-79
2021/10/01 13:39:59;;;;;;;10.38;6.87;;;;;;;14.77;90.45;99751.20;2279701;78;21118;-83
2021/10/01 13:42:55;;;;;;;;;;;;;;;14.85;91.27;99754.25;2281297;78;21536;-83
2021/10/01 13:45:56;;;;;;;7.87;6.67;;;;;;;14.84;90.62;99740.26;2279774;78;20124;-83
2021/10/01 13:48:57;;;;;;;7.75;7.05;;;;;;;14.78;90.68;99738.34;2279611;78;20981;-81
2021/10/01 13:51:58;;;;;;;7.87;6.50;;;;;;;14.79;91.43;99738.15;2279755;78;21048;-81
2021/10/01 13:54:59;;;;;;;7.33;6.30;;;;;;;14.82;91.63;99737.49;2279773;78;20993;-81
2021/10/01 13:58:00;;;;;;;4.97;4.53;;;;;;;14.86;91.56;99731.66;2279761;78;21535;-81
2021/10/01 14:01:01;;;;;;;4.62;4.22;;;;;;;14.93;89.36;99731.75;2279572;78;20945;-82
2021/10/01 14:04:02;;;;;;;6.42;5.83;;;;;;;14.92;90.23;99721.70;2279747;78;21101;-81
2021/10/01 14:07:03;;;;;;;6.28;5.78;;;;;;;14.94;91.08;99718.89;2279592;78;21425;-80
2021/10/01 14:10:04;;;;;;;6.87;6.12;;;;;;;14.89;91.22;99715.47;2279574;78;20957;-81
2021/10/01 14:13:06;;;;;;;5.80;5.20;;;;;;;14.84;91.17;99723.12;2279453;78;21095;-82
2021/10/01 14:16:07;;;;;;;6.42;5.15;;;;;;;14.69;90.85;99708.61;2279285;78;21113;-86
2021/10/01 14:19:08;;;;;;;6.08;5.47;;;;;;;14.53;91.23;99713.23;2279694;78;20949;-82
2021/10/01 14:22:09;;;;;;;7.08;6.15;;;;;;;14.37;91.89;99713.70;2279847;78;20945;-83
2021/10/01 14:25:10;;;;;;;7.97;6.87;;;;;;;14.26;92.53;99711.48;2279745;78;20976;-84
2021/10/01 14:28:10;;;;;;;6.37;5.67;;;;;;;14.16;92.99;99711.73;2279639;78;20988;-84
2021/10/01 14:31:11;;;;;;;9.88;6.97;;;;;;;14.08;93.49;99712.30;2279653;78;20945;-88
2021/10/01 14:34:12;;;;;;;9.10;7.33;;;;;;;14.01;94.12;99712.72;2299778;77;20998;-84
2021/10/01 14:37:13;;;;;;;8.23;6.97;;;;;;;13.91;93.62;99705.88;2300806;77;21490;-85
2021/10/01 14:40:14;;;;;;;8.65;7.15;;;;;;;13.89;94.22;99709.16;2301231;77;20962;-83
2021/10/01 14:43:15;;;;;;;7.60;6.75;;;;;;;13.88;94.77;99703.58;2301225;77;21020;-84
2021/10/01 14:46:16;;;;;;;6.80;6.08;;;;;;;13.89;95.40;99702.58;2301180;77;21026;-86
2021/10/01 14:49:17;;;;;;;5.80;5.28;;;;;;;13.89;95.60;99699.13;2301247;77;20985;-85
2021/10/01 14:52:19;;;;;;;5.08;4.35;;;;;;;13.86;95.30;99696.36;2301474;77;20955;-85
2021/10/01 14:55:20;;;;;;;4.95;4.53;;;;;;;13.85;94.98;99695.23;2301325;77;21540;-86
2021/10/01 14:58:21;;;;;;;5.97;4.33;;;;;;;13.79;94.96;99696.73;2301157;77;21025;-86
2021/10/01 15:01:22;;;;;;;6.40;4.53;;;;;;;13.72;95.19;99691.88;2301260;77;20971;-85
2021/10/01 15:04:22;;;;;;;3.65;3.35;;;;;;;13.64;95.51;99691.44;2301359;77;21009;-85
2021/10/01 15:07:23;;;;;;;4.33;3.10;;;;;;;13.57;95.37;99685.73;2301683;77;20970;-85
2021/10/01 15:10:25;;;;;;;3.70;3.40;;;;;;;13.49;95.60;99673.94;2301471;77;20997;-84
2021/10/01 15:13:26;;;;;;;4.72;3.00;;;;;;;13.41;96.15;99676.62;2301494;77;20967;-86
2021/10/01 15:16:27;;;;;;;3.15;2.83;;;;;;;13.31;96.20;99677.66;2301260;77;20974;-85
2021/10/01 15:19:27;;;;;;;3.62;3.10;;;;;;;13.25;96.13;99670.95;2301552;77;21035;-85